Time;durP1;ratioP1;P1;durP2;ratioP2;P2;SDS_P1;SDS_P2;PMS_P1;PMS_P2;Temp;Humidity;BMP_temperature;BMP_pressure;BME280_temperature;BME280_humidity;BME280_pressure;Samples;Min_cycle;Max_cycle;Signal;HPM_P1;HPM_P2
2022/10/04 00:01:55;;;;;;;20.85;12.38;;;;;;;16.02;100.00;100850.78;4940799;29;20123;-84
2022/10/04 00:04:20;;;;;;;24.85;11.77;;;;;;;16.24;100.00;100857.00;4914177;29;20047;-82
2022/10/04 00:06:54;;;;;;;27.95;11.95;;;;;;;16.28;100.00;100859.06;4940920;29;20131;-82
2022/10/04 00:09:28;;;;;;;22.83;10.77;;;;;;;16.12;100.00;100870.03;4940600;29;20035;-85
2022/10/04 00:11:55;;;;;;;19.73;11.07;;;;;;;16.07;100.00;100869.78;4924573;29;20059;-84
2022/10/04 00:14:27;;;;;;;31.52;12.20;;;;;;;15.99;100.00;100878.72;4924279;29;20135;-82
2022/10/04 00:16:54;;;;;;;22.10;10.40;;;;;;;15.85;100.00;100863.53;4941057;29;20032;-83
2022/10/04 00:19:45;;;;;;;26.02;11.80;;;;;;;15.78;100.00;100867.97;4940938;29;20474;-83
2022/10/04 00:22:25;;;;;;;24.25;10.93;;;;;;;15.77;100.00;100870.84;4915837;29;20075;-82
2022/10/04 00:25:06;;;;;;;29.20;11.98;;;;;;;15.66;100.00;100882.84;4940404;29;20512;-84
2022/10/04 00:27:36;;;;;;;25.73;12.23;;;;;;;15.60;100.00;100883.59;4940539;29;20106;-82
2022/10/04 00:30:01;;;;;;;26.65;12.27;;;;;;;15.51;100.00;100874.84;4940409;29;20556;-82
2022/10/04 00:32:28;;;;;;;28.60;12.30;;;;;;;15.61;100.00;100881.75;4923440;29;20044;-82
2022/10/04 00:34:55;;;;;;;17.35;11.07;;;;;;;15.81;100.00;100883.63;4922704;29;20126;-83
2022/10/04 00:37:25;;;;;;;22.60;11.40;;;;;;;15.75;100.00;100879.03;4941288;29;20484;-82
2022/10/04 00:40:16;;;;;;;22.02;12.00;;;;;;;15.66;100.00;100884.69;4940201;29;20036;-86
2022/10/04 00:42:49;;;;;;;30.95;11.80;;;;;;;15.65;100.00;100878.50;4941285;29;20045;-83
2022/10/04 00:45:29;;;;;;;21.58;11.70;;;;;;;15.49;100.00;100884.06;4940486;29;20028;-83
2022/10/04 00:48:14;;;;;;;22.27;11.75;;;;;;;15.51;100.00;100882.03;4940276;29;20048;-83
2022/10/04 00:50:54;;;;;;;24.77;12.20;;;;;;;15.44;100.00;100881.09;4923153;29;20047;-84
2022/10/04 00:53:44;;;;;;;24.10;12.10;;;;;;;15.40;100.00;100890.47;4924288;29;20042;-82
2022/10/04 00:56:30;;;;;;;26.92;11.80;;;;;;;15.33;100.00;100890.38;4923244;29;20143;-82
2022/10/04 00:58:58;;;;;;;23.55;11.55;;;;;;;15.40;100.00;100882.47;4922227;29;20063;-84
2022/10/04 01:01:27;;;;;;;25.02;12.02;;;;;;;15.39;100.00;100878.13;4941001;29;20425;-84
2022/10/04 01:03:56;;;;;;;22.08;12.15;;;;;;;15.40;100.00;100885.97;4941570;29;20043;-83
2022/10/04 01:06:23;;;;;;;20.52;11.13;;;;;;;15.30;100.00;100873.91;4939963;29;20126;-82
2022/10/04 01:08:53;;;;;;;24.30;11.23;;;;;;;15.43;100.00;100879.41;4940310;29;20100;-83
2022/10/04 01:11:24;;;;;;;19.55;10.85;;;;;;;15.46;100.00;100881.72;4939308;29;20169;-83
2022/10/04 01:13:57;;;;;;;23.48;12.00;;;;;;;15.39;100.00;100872.78;4939902;29;20131;-82
2022/10/04 01:16:28;;;;;;;21.08;10.95;;;;;;;15.38;100.00;100879.13;4939326;29;20067;-83
2022/10/04 01:18:55;;;;;;;30.65;11.48;;;;;;;15.36;100.00;100873.16;4939294;29;20485;-83
2022/10/04 01:21:26;;;;;;;24.30;11.23;;;;;;;15.22;100.00;100865.97;4939040;29;20039;-81
2022/10/04 01:23:56;;;;;;;21.38;11.27;;;;;;;15.20;100.00;100874.19;4939516;29;20042;-82
2022/10/04 01:26:33;;;;;;;21.85;10.88;;;;;;;15.26;100.00;100869.94;4941945;29;20036;-83
2022/10/04 01:29:08;;;;;;;19.23;10.77;;;;;;;15.25;100.00;100865.59;4940684;29;20550;-83
2022/10/04 01:31:37;;;;;;;17.33;9.55;;;;;;;15.18;100.00;100857.50;4938216;29;20042;-83
2022/10/04 01:34:04;;;;;;;21.73;11.15;;;;;;;15.15;100.00;100862.38;4940803;29;20035;-83
2022/10/04 01:36:31;;;;;;;25.20;10.82;;;;;;;15.09;100.00;100857.75;4940669;29;20188;-84
2022/10/04 01:38:56;;;;;;;24.45;11.63;;;;;;;15.05;100.00;100859.16;4939924;29;20087;-83
2022/10/04 01:41:55;;;;;;;21.25;10.95;;;;;;;15.08;100.00;100866.81;4949293;29;20023;-83
2022/10/04 01:44:29;;;;;;;27.70;10.85;;;;;;;15.21;100.00;100859.00;4924082;29;20390;-82
2022/10/04 01:46:58;;;;;;;24.48;11.77;;;;;;;15.17;100.00;100865.69;4940201;29;20441;-83
2022/10/04 01:49:29;;;;;;;23.45;10.80;;;;;;;15.08;100.00;100864.13;4940379;29;20123;-82
2022/10/04 01:52:06;;;;;;;23.92;11.82;;;;;;;15.07;100.00;100857.97;4939470;29;20031;-82
2022/10/04 01:54:40;;;;;;;20.58;10.52;;;;;;;15.12;100.00;100865.41;4940572;29;20054;-83
2022/10/04 01:57:20;;;;;;;24.83;11.00;;;;;;;15.17;100.00;100857.69;4942453;29;20035;-83
2022/10/04 01:59:53;;;;;;;16.17;10.38;;;;;;;15.13;100.00;100867.91;4950885;29;20056;-83
2022/10/04 02:02:40;;;;;;;19.45;10.60;;;;;;;15.05;100.00;100864.50;4953143;29;20204;-84
2022/10/04 02:05:14;;;;;;;20.08;9.85;;;;;;;15.09;100.00;100858.59;4957418;29;20063;-83
2022/10/04 02:07:44;;;;;;;24.65;9.85;;;;;;;15.16;100.00;100856.03;4950665;29;20456;-80
2022/10/04 02:10:17;;;;;;;17.33;9.32;;;;;;;15.23;100.00;100857.78;4949802;29;20099;-83
2022/10/04 02:12:48;;;;;;;20.17;10.07;;;;;;;15.17;100.00;100863.03;4949228;29;20043;-84
2022/10/04 02:15:15;;;;;;;24.65;10.80;;;;;;;15.01;100.00;100854.16;4949778;29;20537;-83
2022/10/04 02:17:42;;;;;;;29.15;10.65;;;;;;;14.92;100.00;100855.25;4948967;29;20060;-83
2022/10/04 02:20:18;;;;;;;22.38;10.80;;;;;;;14.90;100.00;100859.97;4948833;29;20075;-82
2022/10/04 02:22:51;;;;;;;22.50;10.38;;;;;;;14.88;100.00;100864.63;4946902;29;20028;-84
2022/10/04 02:25:18;;;;;;;;;;;;;;;14.80;100.00;100862.06;4946885;29;20059;-84
2022/10/04 02:27:44;;;;;;;22.23;9.95;;;;;;;14.79;100.00;100856.91;4949679;29;19921;-82
2022/10/04 02:30:11;;;;;;;21.27;10.52;;;;;;;14.77;100.00;100857.09;4950437;29;20103;-82
2022/10/04 02:32:58;;;;;;;23.92;9.88;;;;;;;14.81;100.00;100857.56;4930597;29;20125;-82
2022/10/04 02:35:28;;;;;;;18.88;10.48;;;;;;;14.72;100.00;100859.47;4947006;29;20035;-83
2022/10/04 02:38:12;;;;;;;23.75;10.88;;;;;;;14.73;100.00;100855.78;4946684;29;20068;-82
2022/10/04 02:40:55;;;;;;;21.48;10.98;;;;;;;14.64;100.00;100862.22;4945728;29;20060;-82
2022/10/04 02:44:06;;;;;;;25.42;11.38;;;;;;;14.58;100.00;100852.28;4926895;29;20039;-84
2022/10/04 02:46:43;;;;;;;24.88;11.77;;;;;;;14.49;100.00;100853.31;4932078;29;20485;-84
2022/10/04 02:49:27;;;;;;;24.73;10.75;;;;;;;14.56;100.00;100848.94;4939398;29;20094;-82
2022/10/04 02:52:18;;;;;;;21.35;10.88;;;;;;;14.49;100.00;100853.31;4951568;29;20151;-83
2022/10/04 02:55:01;;;;;;;20.48;9.82;;;;;;;14.58;100.00;100852.28;4940056;29;20090;-83
2022/10/04 02:57:32;;;;;;;18.55;9.90;;;;;;;14.82;100.00;100854.69;4938231;29;20405;-84
2022/10/04 03:00:21;;;;;;;25.65;11.02;;;;;;;14.87;100.00;100857.66;4937786;29;20031;-82
2022/10/04 03:03:08;;;;;;;18.65;10.05;;;;;;;14.79;100.00;100855.06;4920039;29;20036;-84
2022/10/04 03:05:35;;;;;;;19.13;10.65;;;;;;;14.61;100.00;100849.25;4937102;29;20082;-83
2022/10/04 03:08:00;;;;;;;18.63;10.27;;;;;;;14.65;100.00;100850.50;4937321;29;20043;-82
2022/10/04 03:10:26;;;;;;;21.83;10.55;;;;;;;14.54;100.00;100847.47;4936436;29;20044;-84
2022/10/04 03:12:52;;;;;;;24.65;11.70;;;;;;;14.56;100.00;100848.09;4936810;29;20040;-83
2022/10/04 03:15:18;;;;;;;21.15;12.77;;;;;;;14.55;100.00;100849.94;4942234;29;20039;-85
2022/10/04 03:17:44;;;;;;;30.20;12.35;;;;;;;14.52;100.00;100855.63;4954187;29;20035;-87
2022/10/04 03:20:15;;;;;;;26.88;13.13;;;;;;;14.48;100.00;100854.34;4939368;29;20103;-88
2022/10/04 03:22:43;;;;;;;24.10;13.65;;;;;;;14.42;100.00;100849.72;4956019;29;20019;-87
2022/10/04 03:25:36;;;;;;;30.88;16.35;;;;;;;14.37;100.00;100850.25;4938589;29;20059;-87
2022/10/04 03:28:02;;;;;;;31.02;18.20;;;;;;;14.36;100.00;100856.59;4955879;29;20031;-87
2022/10/04 03:30:30;;;;;;;35.10;19.15;;;;;;;14.33;100.00;100856.09;4938908;29;20079;-87
2022/10/04 03:33:04;;;;;;;36.88;19.38;;;;;;;14.25;100.00;100867.63;4954307;29;20028;-87
2022/10/04 03:35:39;;;;;;;37.47;21.67;;;;;;;14.13;100.00;100874.38;4939972;29;20040;-88
2022/10/04 03:38:11;;;;;;;50.67;24.85;;;;;;;14.13;100.00;100868.22;4939654;29;20048;-87
2022/10/04 03:40:44;;;;;;;106.55;30.23;;;;;;;14.05;100.00;100870.97;4938260;29;20044;-87
2022/10/04 03:43:12;;;;;;;140.27;32.13;;;;;;;14.02;100.00;100871.31;4954623;29;20031;-87
2022/10/04 03:45:40;;;;;;;254.02;36.42;;;;;;;13.95;100.00;100882.66;4954992;29;20024;-87
2022/10/04 03:48:11;;;;;;;161.77;37.72;;;;;;;13.93;100.00;100874.00;4938588;29;20043;-88
2022/10/04 03:50:46;;;;;;;192.80;37.67;;;;;;;13.86;100.00;100886.38;4955588;29;20047;-87
2022/10/04 03:53:41;;;;;;;203.55;39.83;;;;;;;13.84;100.00;100885.72;4954118;29;20036;-88
2022/10/04 03:56:26;;;;;;;158.98;39.75;;;;;;;13.85;100.00;100887.38;4957748;29;20087;-87
2022/10/04 03:59:07;;;;;;;137.07;40.88;;;;;;;13.85;100.00;100892.69;4958678;29;20036;-88
2022/10/04 04:01:53;;;;;;;;;;;;;;;13.95;100.00;100889.84;4942967;29;20039;-87
2022/10/04 04:04:18;;;;;;;189.10;37.80;;;;;;;13.90;100.00;100890.34;4957458;29;19925;-89
2022/10/04 04:06:47;;;;;;;136.60;36.45;;;;;;;13.89;100.00;100899.34;4958332;29;20063;-89
2022/10/04 04:09:37;;;;;;;114.88;37.13;;;;;;;13.78;100.00;100901.56;4959214;29;20044;-88
2022/10/04 04:12:08;;;;;;;110.68;36.92;;;;;;;13.76;100.00;100898.22;4943064;29;20075;-89
2022/10/04 04:14:37;;;;;;;100.82;38.67;;;;;;;13.86;100.00;100905.03;4959300;29;20095;-88
2022/10/04 04:17:57;;;;;;;91.72;38.17;;;;;;;13.88;100.00;100897.69;4943126;29;20059;-88
2022/10/04 04:20:46;;;;;;;105.20;37.25;;;;;;;13.81;100.00;100896.72;4958986;29;20055;-84
2022/10/04 04:23:14;;;;;;;92.50;39.03;;;;;;;13.86;100.00;100913.00;4941384;29;20081;-89
2022/10/04 04:25:45;;;;;;;85.88;38.90;;;;;;;13.88;100.00;100913.69;4959357;29;20067;-89
2022/10/04 04:28:28;;;;;;;81.60;38.63;;;;;;;13.88;100.00;100921.69;4942174;29;20036;-89
2022/10/04 04:31:21;;;;;;;89.35;38.65;;;;;;;13.90;100.00;100914.34;4953046;29;20030;-88
2022/10/04 04:34:03;;;;;;;78.47;38.17;;;;;;;14.12;100.00;100919.91;4938802;29;20039;-88
2022/10/04 04:36:32;;;;;;;82.43;35.85;;;;;;;14.13;100.00;100918.88;4905510;29;20036;-90
2022/10/04 04:39:42;;;;;;;88.22;37.45;;;;;;;14.16;100.00;100926.50;4921290;29;20096;-88
2022/10/04 04:42:37;;;;;;;111.20;38.47;;;;;;;14.15;100.00;100914.22;4878548;29;20058;-86
2022/10/04 04:45:14;;;;;;;60.67;37.08;;;;;;;14.17;100.00;100925.50;4823733;29;20062;-87
2022/10/04 04:47:46;;;;;;;84.25;38.65;;;;;;;14.17;100.00;100925.50;4822011;29;20038;-87
2022/10/04 04:50:17;;;;;;;90.57;36.03;;;;;;;14.15;100.00;100927.53;4829644;29;20043;-86
2022/10/04 04:52:49;;;;;;;92.38;38.42;;;;;;;14.16;100.00;100929.19;4836484;29;20054;-87
2022/10/04 04:55:27;;;;;;;70.68;37.35;;;;;;;14.26;100.00;100929.78;4873957;29;20094;-87
2022/10/04 04:57:56;;;;;;;73.25;37.78;;;;;;;14.34;100.00;100935.13;4818039;29;20116;-88
2022/10/04 05:00:29;;;;;;;84.30;37.72;;;;;;;14.20;100.00;100938.50;4832977;29;20041;-90
2022/10/04 05:03:16;;;;;;;120.13;39.40;;;;;;;14.04;100.00;100936.75;4916581;29;20080;-91
2022/10/04 05:05:46;;;;;;;102.05;42.42;;;;;;;14.04;100.00;100946.56;4943520;29;20040;-92
2022/10/04 05:08:38;;;;;;;111.07;40.70;;;;;;;14.01;100.00;100946.94;4945673;29;20044;-91
2022/10/04 05:11:07;;;;;;;72.87;30.57;;;;;;;13.94;100.00;100944.97;4942979;29;20107;-90
2022/10/04 05:14:15;;;;;;;73.28;41.25;;;;;;;14.08;100.00;100951.41;4958274;29;20042;-91
2022/10/04 05:16:47;;;;;;;139.23;44.47;;;;;;;14.02;100.00;100961.94;4899574;29;20048;-91
2022/10/04 05:19:45;;;;;;;303.40;44.05;;;;;;;13.95;100.00;100965.25;4886104;29;20061;-91
2022/10/04 05:22:16;;;;;;;293.25;38.97;;;;;;;14.07;100.00;100965.72;4901796;29;20041;-89
2022/10/04 05:25:18;;;;;;;68.38;35.67;;;;;;;14.03;100.00;100966.22;4901604;29;20041;-89
2022/10/04 05:28:26;;;;;;;68.80;34.97;;;;;;;13.89;100.00;100965.94;4901710;29;20152;-91
2022/10/04 05:31:22;;;;;;;96.25;33.97;;;;;;;13.90;100.00;100970.28;4879153;29;20033;-90
2022/10/04 05:34:51;;;;;;;68.97;37.08;;;;;;;13.84;100.00;100968.31;4954546;29;20028;-89
2022/10/04 05:37:38;;;;;;;102.10;35.28;;;;;;;13.85;100.00;100974.47;4941452;29;20050;-90
2022/10/04 05:40:22;;;;;;;72.85;37.03;;;;;;;13.71;100.00;100970.69;4935026;29;20052;-88
2022/10/04 05:42:50;;;;;;;65.95;33.65;;;;;;;13.78;100.00;100981.50;4938638;29;20055;-86
2022/10/04 05:45:35;;;;;;;132.60;34.75;;;;;;;13.75;100.00;100988.00;4938537;29;20034;-92
2022/10/04 05:48:07;;;;;;;76.70;35.05;;;;;;;13.75;100.00;100990.66;4939842;29;20032;-89
2022/10/04 05:50:41;;;;;;;67.85;35.65;;;;;;;13.70;100.00;100993.00;4907582;29;20047;-91
2022/10/04 05:53:34;;;;;;;70.82;33.47;;;;;;;13.69;100.00;100996.66;4919869;29;20044;-91
2022/10/04 05:56:24;;;;;;;98.60;33.13;;;;;;;13.62;100.00;101003.66;4939305;29;20095;-91
2022/10/04 05:59:15;;;;;;;72.93;32.42;;;;;;;13.67;100.00;101006.66;4937735;29;20505;-89
2022/10/04 06:02:17;;;;;;;69.45;34.13;;;;;;;13.62;100.00;101002.84;4938257;29;20032;-92
2022/10/04 06:05:00;;;;;;;101.47;33.60;;;;;;;13.75;100.00;101009.31;4938671;29;20044;-88
2022/10/04 06:08:07;;;;;;;55.33;32.30;;;;;;;13.74;100.00;101007.66;4923204;29;20040;-91
2022/10/04 06:11:05;;;;;;;46.50;29.98;;;;;;;13.85;100.00;101007.25;4936889;29;20044;-92
2022/10/04 06:13:51;;;;;;;52.15;31.70;;;;;;;14.07;100.00;101007.53;4936457;29;20071;-88
2022/10/04 06:16:46;;;;;;;48.50;28.58;;;;;;;14.20;100.00;101013.97;4911438;29;20116;-90
2022/10/04 06:19:35;;;;;;;48.25;26.30;;;;;;;14.23;100.00;101020.78;4938421;29;20044;-91
2022/10/04 06:22:25;;;;;;;43.63;21.33;;;;;;;14.32;100.00;101011.72;4938598;29;20111;-91
2022/10/04 06:25:01;;;;;;;;;;;;;;;14.55;100.00;101027.84;4922853;29;20056;-92
2022/10/04 06:27:40;;;;;;;34.25;18.52;;;;;;;14.66;100.00;101020.25;4922395;29;19938;-93
2022/10/04 06:30:23;;;;;;;26.85;16.45;;;;;;;14.90;100.00;101027.28;4938098;29;20048;-89
2022/10/04 06:33:14;;;;;;;31.33;16.17;;;;;;;15.10;100.00;101022.28;4922430;29;20036;-89
2022/10/04 06:36:15;;;;;;;27.70;15.93;;;;;;;15.10;100.00;101027.63;4921204;29;20081;-91
2022/10/04 06:39:28;;;;;;;22.38;14.90;;;;;;;15.00;100.00;101023.34;4940193;29;20036;-87
2022/10/04 06:42:04;;;;;;;35.67;15.43;;;;;;;14.88;100.00;101030.09;4916455;29;20052;-89
2022/10/04 06:44:46;;;;;;;25.15;14.80;;;;;;;14.94;100.00;101034.75;4936888;29;20051;-91
2022/10/04 06:47:23;;;;;;;24.50;14.50;;;;;;;14.99;100.00;101036.88;4908438;29;20028;-89
2022/10/04 06:50:27;;;;;;;27.38;14.27;;;;;;;14.91;100.00;101035.09;4908630;29;20035;-90
2022/10/04 06:53:43;;;;;;;24.42;14.40;;;;;;;14.89;100.00;101037.09;4935764;29;20048;-88
2022/10/04 06:56:22;;;;;;;27.15;14.60;;;;;;;14.86;100.00;101045.47;4938235;29;20036;-87
2022/10/04 06:59:27;;;;;;;24.55;14.40;;;;;;;14.83;100.00;101053.84;4935434;29;20052;-90
2022/10/04 07:02:03;;;;;;;32.83;17.33;;;;;;;14.80;100.00;101053.34;4912653;29;20202;-88
2022/10/04 07:04:47;;;;;;;25.92;15.45;;;;;;;14.77;100.00;101064.38;4931199;29;20039;-90
2022/10/04 07:07:26;;;;;;;28.48;16.90;;;;;;;14.73;100.00;101063.91;4940079;23;20048;-81
2022/10/04 07:10:43;;;;;;;27.77;16.30;;;;;;;14.80;100.00;101069.38;4923141;29;20039;-84
2022/10/04 07:13:26;;;;;;;26.52;15.88;;;;;;;14.86;100.00;101064.16;4877469;29;20577;-83
2022/10/04 07:16:17;;;;;;;30.60;16.50;;;;;;;15.03;100.00;101059.53;4903381;29;20079;-84
2022/10/04 07:18:49;;;;;;;28.67;16.27;;;;;;;15.12;100.00;101071.81;4915893;29;20040;-85
2022/10/04 07:21:16;;;;;;;36.83;18.43;;;;;;;15.21;100.00;101069.94;4915029;29;20051;-86
2022/10/04 07:24:02;;;;;;;44.00;21.17;;;;;;;15.45;100.00;101077.72;4915871;29;20130;-83
2022/10/04 07:26:28;;;;;;;48.35;21.67;;;;;;;15.45;100.00;101075.06;4899154;29;20040;-87
2022/10/04 07:31:44;;;;;;;42.85;21.52;;;;;;;15.68;100.00;101086.56;4919550;29;20047;-83
2022/10/04 07:34:16;;;;;;;72.38;27.73;;;;;;;15.89;100.00;101081.34;4920107;29;20032;-85
2022/10/04 07:36:52;;;;;;;61.17;26.98;;;;;;;16.07;100.00;101082.84;4919414;29;20047;-84
2022/10/04 07:39:29;;;;;;;63.55;27.42;;;;;;;16.07;100.00;101088.19;4920880;29;20099;-83
2022/10/04 07:42:00;;;;;;;58.45;26.40;;;;;;;16.07;100.00;101091.69;4919374;29;20100;-84
2022/10/04 07:44:28;;;;;;;62.00;25.38;;;;;;;16.27;100.00;101094.66;4921736;29;20108;-84
2022/10/04 07:46:56;;;;;;;64.68;27.55;;;;;;;16.13;100.00;101093.63;4921917;29;20116;-84
2022/10/04 07:49:22;;;;;;;71.47;29.05;;;;;;;15.93;100.00;101096.03;4922184;29;20051;-84
2022/10/04 07:52:30;;;;;;;63.72;26.85;;;;;;;16.02;100.00;101094.91;4921722;29;20036;-86
2022/10/04 07:55:16;;;;;;;56.00;26.92;;;;;;;16.08;100.00;101095.19;4920270;29;20063;-87
2022/10/04 07:57:51;;;;;;;63.33;26.80;;;;;;;15.88;100.00;101101.06;4920617;29;20058;-84
2022/10/04 08:00:41;;;;;;;61.45;26.52;;;;;;;15.91;100.00;101100.69;4917067;29;20043;-87
2022/10/04 08:03:24;;;;;;;57.03;25.60;;;;;;;15.86;100.00;101111.13;4902999;29;20071;-85
2022/10/04 08:06:10;;;;;;;55.45;25.48;;;;;;;15.95;100.00;101109.19;4902302;29;20040;-85
2022/10/04 08:08:57;;;;;;;54.00;25.20;;;;;;;16.11;100.00;101108.22;4902783;29;20093;-85
2022/10/04 08:11:48;;;;;;;55.22;23.70;;;;;;;16.36;100.00;101109.59;4902732;29;20041;-85
2022/10/04 08:14:43;;;;;;;51.50;23.15;;;;;;;16.26;100.00;101103.69;4907128;29;20147;-85
2022/10/04 08:17:27;;;;;;;44.95;21.30;;;;;;;16.32;100.00;101105.63;4901436;29;20152;-85
2022/10/04 08:19:55;;;;;;;43.53;21.58;;;;;;;16.32;100.00;101106.44;4901217;29;20040;-84
2022/10/04 08:22:55;;;;;;;42.90;21.63;;;;;;;16.40;100.00;101109.03;4901941;29;20047;-86
2022/10/04 08:25:28;;;;;;;51.67;25.00;;;;;;;16.47;100.00;101114.47;4908875;29;20371;-84
2022/10/04 08:32:03;;;;;;;56.80;22.83;;;;;;;17.02;100.00;101119.28;4901793;29;20036;-83
2022/10/04 08:34:52;;;;;;;49.67;22.95;;;;;;;16.98;100.00;101118.84;4901422;29;20045;-86
2022/10/04 08:37:42;;;;;;;43.60;20.73;;;;;;;17.11;100.00;101123.50;4902381;29;20040;-84
2022/10/04 08:40:19;;;;;;;43.58;21.23;;;;;;;17.22;100.00;101114.13;4902936;29;20041;-87
2022/10/04 08:43:03;;;;;;;40.22;21.52;;;;;;;17.29;100.00;101125.75;4902670;29;20044;-85
2022/10/04 08:45:52;;;;;;;40.50;21.23;;;;;;;17.41;100.00;101121.53;4901825;29;20095;-84
2022/10/04 08:48:37;;;;;;;34.50;20.00;;;;;;;17.31;100.00;101121.84;4901217;29;20079;-87
2022/10/04 08:51:20;;;;;;;39.63;21.50;;;;;;;17.36;100.00;101122.13;4902706;29;20036;-84
2022/10/04 08:54:16;;;;;;;38.15;20.98;;;;;;;17.27;100.00;101122.41;4902142;29;20033;-85
2022/10/04 08:57:06;;;;;;;41.67;21.92;;;;;;;17.27;100.00;101122.41;4902602;29;20041;-84
2022/10/04 08:59:47;;;;;;;45.78;21.63;;;;;;;17.44;100.00;101123.81;4903497;29;20120;-84
2022/10/04 09:02:50;;;;;;;43.53;22.23;;;;;;;17.59;100.00;101115.75;4905332;29;20040;-85
2022/10/04 09:05:53;;;;;;;46.83;20.58;;;;;;;17.80;100.00;101121.91;4903257;29;20040;-85
2022/10/04 09:08:24;;;;;;;;;;;;;;;18.28;100.00;101133.59;4902324;29;20129;-88
2022/10/04 09:11:20;;;;;;;41.85;20.83;;;;;;;18.27;100.00;101136.47;4902719;29;19919;-83
2022/10/04 09:14:29;;;;;;;40.17;19.23;;;;;;;18.36;100.00;101135.31;4902428;29;20037;-88
2022/10/04 09:17:18;;;;;;;35.95;18.67;;;;;;;18.25;100.00;101146.56;4902075;29;20051;-86
2022/10/04 09:19:54;;;;;;;41.97;20.27;;;;;;;18.07;100.00;101137.16;4904501;29;20032;-86
2022/10/04 09:22:41;;;;;;;37.13;20.40;;;;;;;18.28;100.00;101151.53;4904908;29;20036;-87
2022/10/04 09:25:22;;;;;;;34.05;19.13;;;;;;;18.19;100.00;101142.00;4903627;29;20043;-88
2022/10/04 09:27:56;;;;;;;36.63;19.92;;;;;;;18.11;100.00;101142.13;4903830;29;20549;-84
2022/10/04 09:30:41;;;;;;;37.13;20.50;;;;;;;18.36;100.00;101135.31;4902375;29;20028;-85
2022/10/04 09:33:20;;;;;;;37.33;21.50;;;;;;;18.37;100.00;101137.78;4902498;29;20497;-86
2022/10/04 09:36:14;;;;;;;38.75;21.77;;;;;;;18.44;100.00;101145.88;4908710;29;20069;-85
2022/10/04 09:39:09;;;;;;;38.58;23.15;;;;;;;18.40;100.00;101153.47;4901019;29;20501;-86
2022/10/04 09:41:53;;;;;;;46.33;23.92;;;;;;;18.12;100.00;101154.53;4899785;29;20040;-84
2022/10/04 09:44:46;;;;;;;42.90;23.50;;;;;;;18.04;100.00;101153.66;4901618;29;20071;-88
2022/10/04 09:47:36;;;;;;;46.60;26.75;;;;;;;18.06;100.00;101156.97;4883543;29;20044;-88
2022/10/04 09:50:25;;;;;;;47.92;25.85;;;;;;;18.06;100.00;101156.97;4901278;29;20060;-84
2022/10/04 09:53:19;;;;;;;48.75;24.67;;;;;;;18.10;100.00;101164.66;4901113;29;20037;-85
2022/10/04 09:56:03;;;;;;;50.13;25.50;;;;;;;18.32;100.00;101159.03;4899173;29;20040;-84
2022/10/04 09:58:50;;;;;;;50.78;25.83;;;;;;;18.14;100.00;101160.53;4915818;29;20040;-87
2022/10/04 10:01:32;;;;;;;46.22;24.98;;;;;;;18.10;100.00;101160.09;4900541;29;20403;-86
2022/10/04 10:04:01;;;;;;;39.67;25.23;;;;;;;18.13;100.00;101158.88;4901304;29;20041;-84
2022/10/04 10:06:39;;;;;;;48.03;25.95;;;;;;;18.03;100.00;101162.72;4899961;29;20398;-87
2022/10/04 10:09:05;;;;;;;42.28;25.13;;;;;;;18.07;100.00;101157.78;4901177;29;20092;-85
2022/10/04 10:14:48;;;;;;;46.05;24.90;;;;;;;18.39;100.00;101153.69;4899717;29;20497;-86
2022/10/04 10:17:47;;;;;;;43.83;23.05;;;;;;;18.72;100.00;101156.56;4899136;29;20029;-86
2022/10/04 10:20:36;;;;;;;39.95;23.40;;;;;;;19.48;100.00;101160.78;4899030;29;20036;-87
2022/10/04 10:23:14;;;;;;;43.05;23.45;;;;;;;19.79;100.00;101158.31;4898682;29;20061;-84
2022/10/04 10:25:58;;;;;;;36.60;21.23;;;;;;;20.60;100.00;101158.84;4898366;29;20043;-84
2022/10/04 10:28:42;;;;;;;35.80;21.50;;;;;;;21.04;100.00;101156.19;4899355;29;20044;-84
2022/10/04 10:31:23;;;;;;;32.65;20.13;;;;;;;21.58;100.00;101162.91;4901117;29;20043;-88
2022/10/04 10:34:23;;;;;;;37.65;19.27;;;;;;;21.47;100.00;101155.56;4900890;29;20475;-85
2022/10/04 10:37:08;;;;;;;33.67;20.40;;;;;;;20.56;100.00;101154.91;4902304;29;20033;-86
2022/10/04 10:40:06;;;;;;;30.40;19.33;;;;;;;21.35;100.00;101158.09;4901436;29;20096;-86
2022/10/04 10:42:48;;;;;;;34.47;18.35;;;;;;;22.15;100.00;101157.28;4902455;29;20859;-88
2022/10/04 10:45:29;;;;;;;30.80;18.67;;;;;;;22.49;100.00;101160.47;4902823;29;20120;-87
2022/10/04 10:48:43;;;;;;;34.50;19.10;;;;;;;23.08;100.00;101166.03;4910169;29;20051;-84
2022/10/04 10:51:22;;;;;;;30.25;18.67;;;;;;;23.26;100.00;101161.63;4921365;29;20056;-86
2022/10/04 10:54:36;;;;;;;28.20;17.63;;;;;;;23.29;100.00;101161.16;4920940;29;20209;-84
2022/10/04 10:57:26;;;;;;;32.47;16.92;;;;;;;23.89;100.00;101167.34;4910799;29;20045;-86
2022/10/04 11:00:19;;;;;;;26.55;16.88;;;;;;;23.00;100.00;101160.91;4884274;29;20061;-84
2022/10/04 11:03:16;;;;;;;28.42;17.35;;;;;;;22.25;100.00;101153.25;4902180;29;20075;-87
2022/10/04 11:06:00;;;;;;;30.20;19.20;;;;;;;22.41;100.00;101152.66;4902104;29;20497;-87
2022/10/04 11:08:54;;;;;;;31.23;18.63;;;;;;;22.44;100.00;101144.09;4903665;29;20096;-88
2022/10/04 11:11:54;;;;;;;32.33;18.58;;;;;;;22.41;100.00;101142.69;4904839;29;20041;-86
2022/10/04 11:14:26;;;;;;;26.38;17.83;;;;;;;22.74;100.00;101136.94;4903793;29;20513;-88
2022/10/04 11:16:56;;;;;;;29.80;17.98;;;;;;;22.47;100.00;101130.19;4903166;29;20126;-87
2022/10/04 11:19:41;;;;;;;34.25;19.20;;;;;;;22.44;100.00;101142.22;4902532;29;20045;-89
2022/10/04 11:22:43;;;;;;;30.10;17.55;;;;;;;22.74;100.00;101131.53;4903857;29;20037;-88
2022/10/04 11:25:24;;;;;;;30.88;16.85;;;;;;;22.74;100.00;101136.94;4908718;29;20048;-87
2022/10/04 11:28:04;;;;;;;32.22;17.38;;;;;;;23.71;100.00;101143.88;4904887;29;20487;-83
2022/10/04 11:31:12;;;;;;;27.75;16.25;;;;;;;24.30;100.00;101142.03;4929052;29;20048;-86
2022/10/04 11:33:51;;;;;;;25.42;15.27;;;;;;;24.32;100.00;101138.06;4913900;29;20067;-84
2022/10/04 11:36:48;;;;;;;22.75;14.00;;;;;;;24.36;100.00;101147.34;4894412;29;20040;-87
2022/10/04 11:39:29;;;;;;;28.10;15.65;;;;;;;24.30;100.00;101145.59;4912624;29;20090;-84
2022/10/04 11:42:06;;;;;;;25.90;15.52;;;;;;;24.01;100.00;101155.47;4895028;29;20055;-84
2022/10/04 11:44:48;;;;;;;21.25;14.80;;;;;;;24.17;100.00;101154.78;4908220;29;20039;-85
2022/10/04 11:47:25;;;;;;;22.13;13.63;;;;;;;24.81;100.00;101147.50;4905509;29;20554;-85
2022/10/04 11:50:14;;;;;;;20.40;13.27;;;;;;;25.10;98.61;101146.47;4904737;29;20113;-85
2022/10/04 11:53:02;;;;;;;19.45;12.80;;;;;;;25.50;93.94;101142.88;4905942;29;20103;-86
2022/10/04 11:56:03;;;;;;;22.00;12.38;;;;;;;25.13;96.24;101137.00;4902381;29;20041;-85
2022/10/04 11:58:52;;;;;;;22.50;13.85;;;;;;;23.41;100.00;101138.53;4900425;29;20060;-84
2022/10/04 12:01:32;;;;;;;21.70;11.90;;;;;;;22.93;100.00;101133.16;4901814;29;20430;-86
2022/10/04 12:04:04;;;;;;;20.77;12.93;;;;;;;22.74;100.00;101133.41;4900938;29;20044;-85
2022/10/04 12:07:22;;;;;;;21.83;13.52;;;;;;;22.38;100.00;101129.63;4898422;29;20041;-85
2022/10/04 12:10:00;;;;;;;22.13;12.93;;;;;;;22.13;100.00;101132.41;4898903;29;20065;-83
2022/10/04 12:12:50;;;;;;;30.92;15.30;;;;;;;22.30;100.00;101129.13;4898135;29;20045;-85
2022/10/04 12:15:40;;;;;;;27.13;13.77;;;;;;;21.91;100.00;101125.75;4899288;29;20145;-85
2022/10/04 12:18:09;;;;;;;22.60;14.90;;;;;;;21.74;100.00;101131.91;4905175;29;20033;-88